createdAt,value
2017-10-19T00:00:26.820Z,13.30
2017-10-19T00:02:55.327Z,13.40
2017-10-19T00:05:23.563Z,13.40
2017-10-19T00:07:51.623Z,13.50
2017-10-19T00:10:19.719Z,13.40
2017-10-19T00:12:48.966Z,13.30
2017-10-19T00:15:17.155Z,13.30
2017-10-19T00:17:45.285Z,13.30
2017-10-19T00:20:13.381Z,13.30
2017-10-19T00:22:42.239Z,13.30
2017-10-19T00:25:10.365Z,13.20
2017-10-19T00:27:38.471Z,13.10
2017-10-19T00:30:06.575Z,13.10
2017-10-19T00:32:35.802Z,13.30
2017-10-19T00:35:03.908Z,13.30
2017-10-19T00:37:32.015Z,13.20
2017-10-19T00:40:00.126Z,13.10
2017-10-19T00:42:28.211Z,13.00
2017-10-19T00:44:56.344Z,13.00
2017-10-19T00:47:24.832Z,12.90
2017-10-19T00:52:22.331Z,12.70
2017-10-19T00:54:51.185Z,12.80
2017-10-19T00:57:20.077Z,12.90
2017-10-19T00:59:48.178Z,12.90
2017-10-19T01:02:16.306Z,12.90
2017-10-19T01:04:45.915Z,12.80
2017-10-19T01:07:14.464Z,12.90
2017-10-19T01:09:42.551Z,12.90
2017-10-19T01:14:40.774Z,13.10
2017-10-19T01:17:09.651Z,13.00
2017-10-19T01:19:37.745Z,13.00
2017-10-19T01:22:06.992Z,13.10
2017-10-19T01:24:35.090Z,13.00
2017-10-19T01:27:03.218Z,12.90
2017-10-19T01:32:00.686Z,13.00
2017-10-19T01:34:28.795Z,13.20
2017-10-19T01:36:56.890Z,13.10
2017-10-19T01:39:25.023Z,12.90
2017-10-19T01:41:54.251Z,12.90
2017-10-19T01:44:23.331Z,12.70
2017-10-19T01:46:51.430Z,12.60
2017-10-19T01:49:19.534Z,12.50
2017-10-19T01:51:48.442Z,12.40
2017-10-19T01:54:16.551Z,12.20
2017-10-19T01:56:44.665Z,12.30
2017-10-19T01:59:13.550Z,12.40
2017-10-19T02:01:41.645Z,12.40
2017-10-19T02:04:09.773Z,12.50
2017-10-19T02:06:37.859Z,12.50
2017-10-19T02:11:35.372Z,12.40
2017-10-19T02:14:03.487Z,12.40
2017-10-19T02:16:31.988Z,12.50
2017-10-19T02:21:29.474Z,12.70
2017-10-19T02:23:57.562Z,12.70
2017-10-19T02:26:26.828Z,12.70
2017-10-19T02:28:56.449Z,12.80
2017-10-19T02:31:24.535Z,12.90
2017-10-19T02:33:52.662Z,12.90
2017-10-19T02:36:20.756Z,13.00
2017-10-19T02:38:49.632Z,13.00
2017-10-19T02:41:18.508Z,13.00
2017-10-19T02:43:47.767Z,13.10
2017-10-19T02:46:16.163Z,13.00
2017-10-19T02:48:44.289Z,13.00
2017-10-19T02:51:12.391Z,13.10
2017-10-19T02:53:40.487Z,13.00
2017-10-19T02:56:08.612Z,12.90
2017-10-19T02:58:36.709Z,12.90
2017-10-19T03:01:05.596Z,12.80
2017-10-19T03:03:34.490Z,12.90
2017-10-19T03:06:03.715Z,13.00
2017-10-19T03:08:31.841Z,12.90
2017-10-19T03:10:59.946Z,12.90
2017-10-19T03:13:28.789Z,12.80
2017-10-19T03:15:56.911Z,12.90
2017-10-19T03:18:25.810Z,12.80
2017-10-19T03:20:53.896Z,12.80
2017-10-19T03:23:22.021Z,12.90
2017-10-19T03:25:50.107Z,12.80
2017-10-19T03:30:47.625Z,12.90
2017-10-19T03:33:15.715Z,12.90
2017-10-19T03:35:44.591Z,12.90
2017-10-19T03:38:13.530Z,12.80
2017-10-19T03:40:42.734Z,12.60
2017-10-19T03:43:10.859Z,12.70
2017-10-19T03:45:38.982Z,12.60
2017-10-19T03:48:08.583Z,12.70
2017-10-19T03:50:37.451Z,12.50
2017-10-19T03:53:06.705Z,12.40
2017-10-19T03:55:34.827Z,12.30
2017-10-19T03:58:03.747Z,12.30
2017-10-19T04:00:31.848Z,12.40
2017-10-19T04:02:59.951Z,12.50
2017-10-19T04:05:28.060Z,12.40
2017-10-19T04:07:57.307Z,12.50
2017-10-19T04:10:25.413Z,12.50
2017-10-19T04:12:53.536Z,12.40
2017-10-19T04:15:22.800Z,12.40
2017-10-19T04:17:51.669Z,12.50
2017-10-19T04:20:19.776Z,12.40
2017-10-19T04:25:17.244Z,12.00
2017-10-19T04:27:46.125Z,11.90
2017-10-19T04:32:48.732Z,11.50
2017-10-19T04:35:17.615Z,11.60
2017-10-19T04:37:46.498Z,11.70
2017-10-19T04:40:14.595Z,11.80
2017-10-19T04:42:42.761Z,11.60
2017-10-19T04:45:11.654Z,11.60
2017-10-19T04:47:40.787Z,11.60
2017-10-19T04:50:08.883Z,11.60
2017-10-19T04:52:37.004Z,11.70
2017-10-19T04:55:05.139Z,11.70
2017-10-19T04:57:33.251Z,11.80
2017-10-19T05:00:01.754Z,11.90
2017-10-19T05:02:29.873Z,11.90
2017-10-19T05:04:57.972Z,11.70
2017-10-19T05:07:26.086Z,11.60
2017-10-19T05:09:54.196Z,11.80
2017-10-19T05:12:23.428Z,12.00
2017-10-19T05:17:22.023Z,12.10
2017-10-19T05:19:50.115Z,12.10
2017-10-19T05:22:19.002Z,12.20
2017-10-19T05:24:47.858Z,12.40
2017-10-19T05:27:17.472Z,12.20
2017-10-19T05:29:47.415Z,12.30
2017-10-19T05:32:15.513Z,12.40
2017-10-19T05:34:43.598Z,12.50
2017-10-19T05:37:12.483Z,12.50
2017-10-19T05:39:40.576Z,12.40
2017-10-19T05:42:08.664Z,12.40
2017-10-19T05:44:37.188Z,12.50
2017-10-19T05:47:05.289Z,12.30
2017-10-19T05:49:33.375Z,12.10
2017-10-19T05:52:01.892Z,11.80
2017-10-19T05:54:29.979Z,11.80
2017-10-19T05:56:58.103Z,11.80
2017-10-19T05:59:26.196Z,12.00
2017-10-19T06:01:55.044Z,12.20
2017-10-19T06:04:23.156Z,12.30
2017-10-19T06:06:51.622Z,12.50
2017-10-19T06:09:19.732Z,12.50
2017-10-19T06:11:47.818Z,12.50
2017-10-19T06:14:15.935Z,12.60
2017-10-19T06:16:44.015Z,12.50
2017-10-19T06:19:12.501Z,12.60
2017-10-19T06:21:40.608Z,12.70
2017-10-19T06:26:38.048Z,12.60
2017-10-19T06:29:06.927Z,12.70
2017-10-19T06:31:35.027Z,12.60
2017-10-19T06:34:03.533Z,12.70
2017-10-19T06:36:31.623Z,12.70
2017-10-19T06:38:59.740Z,12.70
2017-10-19T06:41:29.325Z,12.60
2017-10-19T06:43:57.420Z,12.70
2017-10-19T06:46:25.532Z,12.60
2017-10-19T06:48:54.380Z,12.80
2017-10-19T06:51:22.459Z,12.80
2017-10-19T06:56:20.704Z,12.90
2017-10-19T06:58:48.788Z,12.90
2017-10-19T07:01:16.881Z,13.00
2017-10-19T07:03:44.984Z,13.00
2017-10-19T07:06:13.068Z,13.10
2017-10-19T07:08:41.202Z,13.30
2017-10-19T07:11:09.292Z,13.50
2017-10-19T07:13:38.528Z,13.50
2017-10-19T07:16:07.391Z,13.60
2017-10-19T07:18:35.503Z,13.40
2017-10-19T07:21:04.380Z,13.40
2017-10-19T07:23:32.512Z,13.40
2017-10-19T07:26:01.363Z,13.50
2017-10-19T07:28:29.451Z,13.60
2017-10-19T07:30:57.579Z,13.70
2017-10-19T07:33:25.663Z,13.90
2017-10-19T07:35:53.755Z,14.00
2017-10-19T07:38:21.868Z,14.00
2017-10-19T07:40:50.729Z,14.10
2017-10-19T07:43:18.839Z,14.50
2017-10-19T07:45:46.936Z,14.70
2017-10-19T07:48:15.033Z,15.00
2017-10-19T07:50:43.130Z,15.20
2017-10-19T07:53:11.240Z,15.30
2017-10-19T07:55:39.368Z,15.60
2017-10-19T07:58:07.455Z,15.60
2017-10-19T08:00:36.320Z,15.80
2017-10-19T08:03:04.427Z,15.90
2017-10-19T08:05:33.278Z,16.00
2017-10-19T08:08:02.524Z,16.20
2017-10-19T08:10:30.620Z,16.50
2017-10-19T08:12:58.731Z,16.80
2017-10-19T08:15:26.851Z,17.00
2017-10-19T08:17:54.939Z,17.00
2017-10-19T08:20:23.018Z,16.90
2017-10-19T08:22:51.126Z,17.00
2017-10-19T08:25:19.224Z,17.20
2017-10-19T08:30:16.683Z,17.50
2017-10-19T08:32:44.787Z,17.70
2017-10-19T08:35:12.908Z,17.90
2017-10-19T08:37:41.006Z,18.00
2017-10-19T08:40:09.875Z,18.00
2017-10-19T08:42:37.987Z,18.20
2017-10-19T08:45:06.857Z,18.40
2017-10-19T08:47:34.972Z,18.70
2017-10-19T08:50:03.064Z,19.10
2017-10-19T08:52:31.153Z,19.40
2017-10-19T08:55:00.024Z,19.90
2017-10-19T08:57:28.512Z,20.10
2017-10-19T08:59:56.614Z,20.40
2017-10-19T09:02:24.723Z,20.60
2017-10-19T09:04:52.831Z,20.70
2017-10-19T09:07:20.928Z,20.80
2017-10-19T09:09:49.403Z,21.20
2017-10-19T09:12:17.496Z,21.40
2017-10-19T09:14:45.983Z,21.30
2017-10-19T09:17:14.903Z,21.40
2017-10-19T09:19:42.990Z,21.60
2017-10-19T09:22:11.089Z,21.90
2017-10-19T09:24:39.202Z,22.20
2017-10-19T09:27:08.063Z,22.30
2017-10-19T09:29:36.152Z,22.20
2017-10-19T09:32:05.032Z,22.50
2017-10-19T09:34:33.149Z,22.40
2017-10-19T09:37:01.268Z,22.20
2017-10-19T09:39:29.354Z,22.30
2017-10-19T09:41:58.220Z,22.70
2017-10-19T09:44:26.345Z,23.50
2017-10-19T09:46:55.571Z,23.20
2017-10-19T09:49:24.072Z,23.20
2017-10-19T09:51:52.191Z,23.30
2017-10-19T09:54:21.793Z,22.70
2017-10-19T09:56:51.407Z,22.70
2017-10-19T09:59:21.020Z,22.90
2017-10-19T10:01:49.136Z,23.20
2017-10-19T10:04:17.243Z,23.20
2017-10-19T10:06:45.736Z,23.00
2017-10-19T10:09:14.624Z,23.10
2017-10-19T10:11:43.480Z,23.00
2017-10-19T10:14:11.570Z,23.20
2017-10-19T10:16:39.686Z,23.20
2017-10-19T10:19:08.580Z,23.30
2017-10-19T10:21:36.667Z,23.60
2017-10-19T10:24:04.780Z,23.90
2017-10-19T10:26:32.871Z,23.70
2017-10-19T10:29:01.742Z,23.80
2017-10-19T10:31:29.831Z,23.80
2017-10-19T10:33:59.184Z,23.60
2017-10-19T10:36:27.244Z,23.30
2017-10-19T10:38:55.340Z,23.40
2017-10-19T10:41:23.845Z,23.60
2017-10-19T10:43:51.935Z,23.90
2017-10-19T10:46:20.811Z,24.40
2017-10-19T10:48:49.682Z,24.40
2017-10-19T10:51:17.880Z,24.50
2017-10-19T10:53:45.962Z,24.20
2017-10-19T10:56:14.824Z,24.50
2017-10-19T10:58:42.926Z,24.70
2017-10-19T11:01:11.779Z,24.40
2017-10-19T11:03:39.903Z,24.50
2017-10-19T11:06:07.999Z,24.70
2017-10-19T11:08:36.098Z,25.10
2017-10-19T11:11:04.210Z,25.20
2017-10-19T11:16:02.078Z,25.10
2017-10-19T11:18:30.946Z,25.30
2017-10-19T11:20:59.040Z,25.60
2017-10-19T11:23:27.152Z,25.80
2017-10-19T11:25:55.256Z,25.70
2017-10-19T11:28:23.369Z,25.60
2017-10-19T11:30:52.248Z,25.80
2017-10-19T11:33:20.330Z,26.50
2017-10-19T11:35:49.215Z,26.60
2017-10-19T11:38:18.824Z,26.30
2017-10-19T11:40:48.443Z,27.10
2017-10-19T11:43:17.298Z,27.30
2017-10-19T11:45:45.392Z,27.20
2017-10-19T11:48:13.515Z,26.40
2017-10-19T11:50:41.619Z,25.10
2017-10-19T11:53:10.854Z,25.00
2017-10-19T11:55:39.710Z,24.60
2017-10-19T11:58:07.886Z,24.40
2017-10-19T12:00:35.971Z,25.70
2017-10-19T12:03:04.460Z,27.00
2017-10-19T12:05:32.964Z,27.70
2017-10-19T12:08:01.070Z,27.30
2017-10-19T12:10:29.191Z,25.60
2017-10-19T12:12:58.052Z,24.20
2017-10-19T12:15:26.135Z,23.50
2017-10-19T12:17:54.247Z,23.90
2017-10-19T12:20:22.379Z,25.90
2017-10-19T12:22:50.484Z,27.50
2017-10-19T12:25:19.334Z,27.50
2017-10-19T12:27:48.959Z,27.60
2017-10-19T12:32:47.205Z,29.00
2017-10-19T12:35:16.466Z,29.50
2017-10-19T12:40:13.916Z,30.10
2017-10-19T12:42:42.018Z,30.60
2017-10-19T12:45:11.276Z,30.50
2017-10-19T12:47:39.367Z,30.30
2017-10-19T12:52:36.840Z,30.30
2017-10-19T12:55:04.939Z,30.30
2017-10-19T13:02:31.836Z,30.90
2017-10-19T13:04:59.960Z,30.60
2017-10-19T13:07:28.071Z,31.00
2017-10-19T13:09:57.650Z,31.20
2017-10-19T13:12:28.795Z,31.40
2017-10-19T13:14:57.744Z,31.00
2017-10-19T13:17:25.856Z,30.20
2017-10-19T13:19:53.976Z,29.80
2017-10-19T13:22:22.076Z,29.10
2017-10-19T13:27:20.300Z,27.30
2017-10-19T13:29:48.386Z,26.50
2017-10-19T13:32:17.264Z,26.50
2017-10-19T13:34:45.369Z,27.20
2017-10-19T13:37:13.468Z,28.40
2017-10-19T13:39:41.977Z,28.80
2017-10-19T13:42:10.092Z,29.30
2017-10-19T13:44:38.942Z,29.50
2017-10-19T13:47:07.054Z,29.20
2017-10-19T13:49:35.147Z,29.10
2017-10-19T13:52:03.236Z,28.80
2017-10-19T13:54:31.360Z,28.80
2017-10-19T13:57:00.586Z,28.80
2017-10-19T13:59:28.681Z,28.60
2017-10-19T14:01:56.790Z,28.00
2017-10-19T14:04:24.878Z,26.60
2017-10-19T14:06:53.755Z,25.30
2017-10-19T14:09:21.855Z,24.20
2017-10-19T14:11:49.938Z,23.50
2017-10-19T14:14:18.836Z,23.00
2017-10-19T14:16:47.323Z,22.60
2017-10-19T14:19:15.447Z,22.40
2017-10-19T14:21:43.556Z,22.10
2017-10-19T14:24:11.680Z,21.70
2017-10-19T14:26:39.763Z,21.50
2017-10-19T14:29:07.850Z,21.40
2017-10-19T14:31:36.744Z,21.40
2017-10-19T14:34:05.604Z,21.30
2017-10-19T14:36:33.696Z,21.20
2017-10-19T14:39:01.812Z,21.00
2017-10-19T14:41:29.899Z,21.00
2017-10-19T14:43:58.003Z,20.90
2017-10-19T14:46:26.116Z,20.80
2017-10-19T14:48:54.230Z,20.80
2017-10-19T14:51:22.327Z,20.80
2017-10-19T14:53:50.809Z,20.70
2017-10-19T14:56:19.320Z,20.60
2017-10-19T14:58:47.408Z,20.50
2017-10-19T15:01:15.504Z,20.50
2017-10-19T15:06:13.745Z,20.50
2017-10-19T15:08:42.594Z,20.40
2017-10-19T15:11:11.447Z,20.40
2017-10-19T15:16:08.886Z,20.40
2017-10-19T15:18:37.008Z,20.40
2017-10-19T15:21:05.091Z,20.40
2017-10-19T15:23:33.184Z,20.40
2017-10-19T15:26:01.296Z,20.30
2017-10-19T15:28:30.156Z,20.20
2017-10-19T15:30:58.649Z,20.10
2017-10-19T15:33:26.737Z,20.10
2017-10-19T15:35:55.603Z,20.00
2017-10-19T15:38:25.187Z,20.00
2017-10-19T15:40:53.687Z,19.90
2017-10-19T15:43:22.175Z,19.70
2017-10-19T15:45:50.264Z,19.60
2017-10-19T15:48:19.512Z,19.50
2017-10-19T15:51:00.405Z,19.40
2017-10-19T15:53:28.776Z,19.40
2017-10-19T15:55:56.820Z,19.20
2017-10-19T15:58:25.663Z,19.10
2017-10-19T16:00:54.905Z,19.00
2017-10-19T16:03:23.008Z,18.90
2017-10-19T16:05:51.120Z,18.70
2017-10-19T16:08:20.007Z,18.50
2017-10-19T16:10:48.100Z,18.30
2017-10-19T16:13:16.187Z,18.20
2017-10-19T16:15:45.071Z,18.20
2017-10-19T16:18:13.168Z,18.00
2017-10-19T16:20:42.386Z,17.60
2017-10-19T16:23:10.486Z,17.80
2017-10-19T16:25:39.376Z,17.80
2017-10-19T16:28:08.219Z,17.70
2017-10-19T16:33:06.055Z,17.50
2017-10-19T16:35:34.131Z,17.30
2017-10-19T16:38:03.004Z,17.30
2017-10-19T16:40:31.107Z,17.30
2017-10-19T16:42:59.197Z,17.10
2017-10-19T16:45:27.294Z,17.00
2017-10-19T16:47:55.394Z,16.90
2017-10-19T16:50:23.482Z,16.90
2017-10-19T16:52:52.349Z,16.80
2017-10-19T16:55:20.443Z,16.70
2017-10-19T16:57:49.288Z,16.80
2017-10-19T17:00:17.392Z,16.80
2017-10-19T17:05:14.841Z,16.70
2017-10-19T17:07:42.964Z,16.70
2017-10-19T17:12:41.175Z,16.80
2017-10-19T17:15:09.280Z,17.10
2017-10-19T17:17:38.156Z,17.10
2017-10-19T17:20:07.015Z,17.10
2017-10-19T17:22:35.900Z,17.20
2017-10-19T17:25:04.770Z,17.20
2017-10-19T17:27:33.620Z,17.20
2017-10-19T17:30:02.499Z,17.00
2017-10-19T17:32:30.584Z,16.90
2017-10-19T17:34:59.436Z,16.80
2017-10-19T17:37:28.311Z,16.80
2017-10-19T17:39:57.532Z,16.80
2017-10-19T17:42:25.663Z,16.80
2017-10-19T17:44:53.747Z,16.80
2017-10-19T17:47:22.264Z,16.90
2017-10-19T17:49:50.397Z,16.80
2017-10-19T17:52:18.889Z,16.90
2017-10-19T17:54:46.993Z,16.80
2017-10-19T17:57:15.108Z,16.80
2017-10-19T18:02:12.600Z,17.00
2017-10-19T18:04:40.697Z,17.00
2017-10-19T18:07:09.186Z,16.90
2017-10-19T18:09:37.730Z,16.80
2017-10-19T18:14:35.963Z,16.80
2017-10-19T18:17:04.061Z,16.70
2017-10-19T18:19:32.151Z,16.70
2017-10-19T18:22:00.263Z,16.70
2017-10-19T18:24:28.773Z,16.70
2017-10-19T18:26:56.908Z,16.80
2017-10-19T18:29:25.007Z,16.70
2017-10-19T18:31:53.095Z,16.70
2017-10-19T18:34:22.221Z,16.80
2017-10-19T18:36:50.314Z,16.70
2017-10-19T18:39:20.104Z,16.70
2017-10-19T18:41:48.968Z,16.60
2017-10-19T18:44:18.413Z,16.60
2017-10-19T18:46:46.553Z,16.70
2017-10-19T18:49:14.652Z,16.60
2017-10-19T18:51:42.751Z,16.50
2017-10-19T18:54:10.882Z,16.50
2017-10-19T18:56:39.008Z,16.50
2017-10-19T18:59:07.130Z,16.60
2017-10-19T19:01:36.506Z,16.70
2017-10-19T19:04:04.629Z,16.80
2017-10-19T19:06:32.748Z,16.70
2017-10-19T19:09:01.245Z,16.60
2017-10-19T19:11:29.337Z,16.50
2017-10-19T19:13:57.461Z,16.40
2017-10-19T19:16:25.557Z,16.40
2017-10-19T19:18:53.689Z,16.40
2017-10-19T19:21:21.800Z,16.30
2017-10-19T19:23:50.324Z,16.30
2017-10-19T19:26:18.436Z,16.40
2017-10-19T19:31:15.919Z,16.30
2017-10-19T19:33:44.007Z,16.20
2017-10-19T19:36:12.099Z,16.20
2017-10-19T19:38:40.233Z,16.20
2017-10-19T19:41:08.341Z,16.10
2017-10-19T19:43:36.436Z,16.20
2017-10-19T19:46:06.071Z,16.00
2017-10-19T19:48:34.933Z,16.00
2017-10-19T19:51:03.056Z,16.10
2017-10-19T19:53:31.556Z,15.90
2017-10-19T19:55:59.682Z,15.90
2017-10-19T19:58:27.791Z,15.90
2017-10-19T20:00:56.313Z,15.80
2017-10-19T20:03:24.412Z,15.80
2017-10-19T20:05:52.526Z,15.70
2017-10-19T20:08:20.657Z,15.50
2017-10-19T20:10:48.757Z,15.70
2017-10-19T20:13:16.833Z,15.50
2017-10-19T20:15:44.944Z,15.60
2017-10-19T20:18:13.036Z,15.60
2017-10-19T20:20:41.153Z,15.40
2017-10-19T20:23:09.259Z,15.30
2017-10-19T20:30:36.058Z,15.40
2017-10-19T20:33:04.169Z,15.40
2017-10-19T20:35:33.028Z,15.30
2017-10-19T20:38:01.292Z,15.30
2017-10-19T20:40:30.197Z,15.30
2017-10-19T20:42:58.673Z,15.20
2017-10-19T20:45:26.830Z,15.10
2017-10-19T20:47:54.908Z,14.90
2017-10-19T20:50:23.024Z,15.00
2017-10-19T20:52:52.631Z,15.00
2017-10-19T20:55:21.504Z,15.00
2017-10-19T20:57:50.388Z,14.80
2017-10-19T21:00:18.485Z,14.60
2017-10-19T21:02:46.582Z,14.80
2017-10-19T21:05:14.710Z,14.90
2017-10-19T21:07:44.324Z,14.90
2017-10-19T21:10:13.237Z,14.80
2017-10-19T21:12:42.121Z,14.80
2017-10-19T21:15:11.026Z,14.90
2017-10-19T21:17:39.150Z,14.90
2017-10-19T21:22:37.220Z,15.00
2017-10-19T21:25:06.461Z,15.00
2017-10-19T21:27:35.331Z,15.00
2017-10-19T21:30:03.448Z,15.10
2017-10-19T21:32:31.549Z,15.10
2017-10-19T21:34:59.680Z,15.20
2017-10-19T21:39:57.176Z,15.20
2017-10-19T21:42:25.296Z,15.10
2017-10-19T21:44:53.399Z,15.10
2017-10-19T21:47:21.496Z,15.10
2017-10-19T21:49:50.021Z,14.90
2017-10-19T21:52:18.101Z,14.90
2017-10-19T21:54:46.228Z,14.60
2017-10-19T21:57:14.356Z,14.40
2017-10-19T21:59:42.460Z,14.50
2017-10-19T22:02:10.561Z,14.50
2017-10-19T22:04:39.084Z,14.70
2017-10-19T22:07:07.171Z,14.70
2017-10-19T22:09:36.019Z,14.70
2017-10-19T22:12:04.236Z,14.70
2017-10-19T22:14:32.348Z,14.80
2017-10-19T22:17:00.438Z,14.90
2017-10-19T22:19:28.566Z,15.00
2017-10-19T22:21:56.682Z,15.10
2017-10-19T22:24:24.782Z,15.00
2017-10-19T22:26:52.888Z,15.10
2017-10-19T22:29:21.001Z,15.10
2017-10-19T22:31:49.116Z,15.00
2017-10-19T22:34:17.207Z,15.10
2017-10-19T22:36:45.327Z,15.10
2017-10-19T22:39:13.432Z,15.10
2017-10-19T22:41:42.290Z,15.10
2017-10-19T22:44:10.852Z,15.00
2017-10-19T22:46:39.696Z,15.00
2017-10-19T22:49:07.775Z,15.00
2017-10-19T22:51:36.679Z,15.00
2017-10-19T22:54:04.779Z,14.90
2017-10-19T22:56:32.880Z,15.10
2017-10-19T22:59:01.002Z,15.10
2017-10-19T23:01:29.091Z,14.90
2017-10-19T23:03:57.204Z,14.90
2017-10-19T23:06:25.341Z,15.00
2017-10-19T23:08:54.192Z,14.90
2017-10-19T23:11:23.101Z,15.00
2017-10-19T23:13:51.247Z,14.90
2017-10-19T23:16:20.137Z,14.90
2017-10-19T23:18:49.026Z,15.00
2017-10-19T23:23:46.497Z,15.10
2017-10-19T23:26:15.379Z,15.00
2017-10-19T23:28:43.466Z,15.00
2017-10-19T23:31:12.337Z,15.10
2017-10-19T23:33:40.491Z,15.10
2017-10-19T23:36:08.605Z,15.10
2017-10-19T23:38:36.694Z,15.10
2017-10-19T23:41:04.823Z,15.00
2017-10-19T23:43:34.046Z,15.00
2017-10-19T23:46:02.931Z,14.90
2017-10-19T23:48:31.053Z,14.90
2017-10-19T23:55:59.590Z,14.80
2017-10-19T23:58:27.714Z,14.70
